Time;durP1;ratioP1;P1;durP2;ratioP2;P2;SDS_P1;SDS_P2;PMS_P1;PMS_P2;Temp;Humidity;BMP_temperature;BMP_pressure;BME280_temperature;BME280_humidity;BME280_pressure;Samples;Min_cycle;Max_cycle;Signal;HPM_P1;HPM_P2
2022/09/14 07:36:24;;;;;;;17.80;11.80;;;;;;;21.53;100.00;99313.24;107422;1285;544226;-60
2022/09/14 07:38:53;;;;;;;13.40;11.20;;;;;;;21.51;100.00;99308.67;109147;1267;22038;-59
2022/09/14 08:01:37;;;;;;;18.50;10.90;;;;;;;;;;107773;1279;544195;-56
2022/09/14 08:04:09;;;;;;;44.10;38.80;;;;;;;;;;111590;1259;21967;-52
2022/09/14 08:09:09;;;;;;;27.30;13.10;;;;;24.78;99418.33;;;;106420;1292;573104;-48
2022/09/14 08:11:39;;;;;;;18.00;11.00;;;;;24.11;99421.02;;;;108826;1266;23905;-52
2022/09/14 08:14:11;;;;;;;16.30;10.90;;;;;23.55;99421.75;;;;110349;1265;96454;-49
2022/09/14 08:16:40;;;;;;;17.10;11.80;;;;;24.16;99421.81;;;;109164;1269;22178;-45
2022/09/14 08:19:19;;;;;;;22.30;13.60;;;;;23.82;99422.09;;;;108767;1268;23512;-47
2022/09/14 08:21:49;;;;;;;16.40;10.70;;;;;23.65;99422.09;;;;107676;1268;1573458;-47
2022/09/14 08:24:20;;;;;;;17.50;10.60;;;;;23.52;99419.03;;;;109113;1266;23051;-44
2022/09/14 08:26:49;;;;;;;25.80;10.90;;;;;23.38;99423.14;;;;109328;1265;23795;-50
2022/09/14 08:29:19;;;;;;;17.20;9.80;;;;;23.68;99418.58;;;;108979;1265;21970;-47
2022/09/14 08:31:50;;;;;;;14.60;11.00;;;;;24.63;99418.59;;;;109032;1266;23048;-47
2022/09/14 08:34:20;;;;;;;14.70;9.30;;;;;25.13;99409.73;;;;108911;1266;21987;-47
2022/09/14 08:36:49;;;;;;;14.00;10.20;;;;;24.32;99414.09;;;;109103;1264;23715;-46
2022/09/14 08:39:18;;;;;;;12.50;10.10;;;;;23.78;99413.42;;;;109005;1266;22151;-47
2022/09/14 08:41:58;;;;;;;11.60;9.00;;;;;24.06;99409.65;;;;109491;1265;23684;-47
2022/09/14 08:44:43;;;;;;;16.70;10.10;;;;;23.46;99406.27;;;;109511;1264;23151;-44
2022/09/14 08:47:33;;;;;;;12.00;8.80;;;;;23.70;99407.42;;;;109496;1263;23088;-42
2022/09/14 08:50:05;;;;;;;17.30;9.60;;;;;23.55;99406.40;;;;109451;1263;21966;-46
2022/09/14 08:52:52;;;;;;;16.70;9.00;;;;;23.58;99406.36;;;;109524;1265;21974;-50
2022/09/14 08:55:41;;;;;;;11.90;9.50;;;;;23.60;99404.84;;;;109249;1263;23714;-50
2022/09/14 08:58:28;;;;;;;19.30;7.90;;;;;23.63;99406.88;;;;109455;1263;23752;-47
2022/09/14 09:01:27;;;;;;;14.70;7.10;;;;;24.21;99403.69;;;;109424;1265;22209;-46
2022/09/14 09:04:13;;;;;;;10.70;7.20;;;;;23.96;99404.69;;;;109463;1265;23774;-44
2022/09/14 09:21:30;;;;;;;22.60;8.10;;;;;;;25.96;43.56;99295.46;107204;1285;575734;-63
2022/09/14 09:32:25;;;;;;;17.30;9.30;;;;;;;23.19;52.36;99287.30;107710;1280;544585;-48
2022/09/14 09:35:18;;;;;;;15.60;9.30;;;;;;;22.97;52.19;99289.61;109478;1262;21967;-48
2022/09/14 09:38:16;;;;;;;17.30;10.90;;;;;;;22.83;52.39;99288.45;109385;1263;24311;-49
2022/09/14 09:40:51;;;;;;;23.50;13.20;;;;;;;22.76;52.65;99284.86;109102;1266;25083;-50
2022/09/14 09:43:21;;;;;;;25.10;13.90;;;;;;;22.74;52.73;99287.30;109256;1266;23056;-49
2022/09/14 09:46:11;;;;;;;24.80;13.90;;;;;;;22.71;52.77;99285.76;107327;1265;2053418;-50
2022/09/14 09:48:44;;;;;;;26.10;14.10;;;;;;;22.72;52.90;99287.86;109425;1263;22021;-48
2022/09/14 09:51:22;;;;;;;28.20;12.70;;;;;;;22.72;52.92;99291.15;109489;1263;22127;-54
2022/09/14 09:54:14;;;;;;;24.90;12.70;;;;;;;22.73;52.89;99293.88;109437;1263;24512;-50
2022/09/14 09:56:55;;;;;;;22.90;11.70;;;;;;;22.73;53.02;99297.57;109160;1265;21969;-53
2022/09/14 09:59:43;;;;;;;;;;;;;;;22.75;53.02;99298.01;109479;1263;21955;-50
2022/09/14 10:02:22;;;;;;;17.40;10.60;;;;;;;22.70;53.21;99297.46;109439;1263;21986;-49
2022/09/14 10:05:08;;;;;;;18.70;11.00;;;;;;;22.70;53.12;99299.18;109450;1263;21975;-48
2022/09/14 10:08:02;;;;;;;17.50;10.30;;;;;;;22.71;53.21;99298.36;109473;1263;22020;-49
2022/09/14 10:10:43;;;;;;;25.00;9.60;;;;;;;22.73;53.23;99297.17;109277;1264;23742;-53
2022/09/14 10:13:32;;;;;;;18.20;10.20;;;;;;;22.74;53.18;99294.48;110087;1256;22213;-52
2022/09/14 10:16:15;;;;;;;16.50;9.60;;;;;;;22.75;53.24;99292.92;110357;1257;22913;-53
2022/09/14 10:18:52;;;;;;;23.00;9.60;;;;;;;22.78;53.18;99291.98;110092;1256;28049;-50
2022/09/14 10:21:24;;;;;;;15.30;9.70;;;;;;;22.79;53.25;99285.98;109932;1256;106829;-52
2022/09/14 10:24:20;;;;;;;16.40;9.40;;;;;;;22.81;53.04;99285.09;110248;1256;22021;-51
2022/09/14 10:26:49;;;;;;;20.30;8.40;;;;;;;22.81;53.14;99284.23;110153;1256;21979;-48
2022/09/14 10:29:41;;;;;;;23.00;9.30;;;;;;;22.83;53.11;99276.95;110048;1257;21973;-51
2022/09/14 10:32:23;;;;;;;13.10;8.20;;;;;;;22.83;53.08;99270.16;110090;1256;23749;-52
2022/09/14 10:34:52;;;;;;;;;;;;;;;22.84;52.97;99273.45;110141;1256;22934;-51
2022/09/14 10:37:43;;;;;;;14.70;8.80;;;;;;;22.78;53.09;99275.44;110018;1257;22940;-51
2022/09/14 10:40:18;;;;;;;16.20;8.30;;;;;;;22.79;53.03;99280.32;110022;1256;21969;-54
2022/09/14 10:43:08;;;;;;;15.80;7.00;;;;;;;22.81;53.11;99276.19;110054;1256;23583;-50
2022/09/14 10:45:49;;;;;;;14.90;7.40;;;;;;;22.84;52.89;99274.85;110073;1256;21966;-49
2022/09/14 10:48:27;;;;;;;16.40;5.80;;;;;;;22.86;52.81;99273.04;110055;1256;23113;-50
2022/09/14 10:51:22;;;;;;;13.40;5.10;;;;;;;22.86;52.68;99269.44;110078;1256;21973;-51
2022/09/14 13:31:15;;;;;;;6.50;2.60;;;;;;;20.84;56.97;99190.45;107316;1286;544465;-49
2022/09/14 13:33:51;;;;;;;8.60;2.90;;;;;;;20.88;56.68;99185.23;109413;1260;23048;-48
2022/09/14 13:36:30;;;;;;;11.80;3.00;;;;;;;20.98;56.43;99180.84;109669;1260;21966;-52
2022/09/14 13:39:02;;;;;;;8.50;3.50;;;;;;;21.11;56.22;99176.73;109913;1260;21967;-49
2022/09/14 13:41:31;;;;;;;10.60;3.20;;;;;;;21.25;56.00;99174.34;109523;1260;23785;-48
2022/09/14 13:44:01;;;;;;;8.30;2.60;;;;;;;21.37;55.85;99174.16;108472;1260;1506037;-52
2022/09/14 13:46:30;;;;;;;6.10;2.90;;;;;;;21.48;55.58;99171.63;109925;1259;21977;-47
2022/09/14 13:48:59;;;;;;;6.60;2.60;;;;;;;21.59;55.31;99167.90;109864;1259;21966;-53
2022/09/14 13:51:28;;;;;;;6.50;2.50;;;;;;;21.68;54.93;99161.84;109808;1259;23104;-50
2022/09/14 13:54:27;;;;;;;7.90;2.20;;;;;;;21.77;54.73;99160.60;110075;1259;21968;-48
2022/09/14 13:57:19;;;;;;;10.30;3.40;;;;;;;21.84;54.35;99160.04;109739;1259;21971;-50
2022/09/14 14:00:02;;;;;;;9.90;3.00;;;;;;;21.91;54.00;99154.29;110030;1259;23716;-49
2022/09/14 14:02:35;;;;;;;7.70;2.50;;;;;;;21.98;53.80;99155.14;109813;1259;24296;-47
2022/09/14 14:05:05;;;;;;;8.90;2.20;;;;;;;22.04;53.49;99150.98;109622;1260;21956;-52
2022/09/14 14:07:35;;;;;;;7.40;2.80;;;;;;;22.10;53.39;99154.42;109844;1259;23026;-48
2022/09/14 14:10:04;;;;;;;5.20;2.50;;;;;;;22.15;53.21;99157.09;110026;1259;23023;-48
2022/09/14 14:12:41;;;;;;;8.80;2.50;;;;;;;22.19;53.09;99160.52;109804;1260;21962;-46
2022/09/14 14:15:10;;;;;;;7.10;2.40;;;;;;;22.23;52.80;99156.79;109240;1260;110360;-48
2022/09/14 14:17:40;;;;;;;8.70;3.90;;;;;;;22.42;59.25;99155.54;108569;1264;288243;-46
2022/09/14 14:20:29;;;;;;;8.90;2.60;;;;;;;22.63;65.11;99151.66;109394;1265;23052;-43
2022/09/14 14:23:04;;;;;;;10.50;4.00;;;;;;;22.42;58.34;99141.73;109467;1265;22006;-44
2022/09/14 14:25:43;;;;;;;11.20;5.90;;;;;;;22.36;56.36;99137.54;109403;1265;23596;-51
2022/09/14 14:28:21;;;;;;;13.70;5.90;;;;;;;22.35;55.13;99133.57;109406;1265;22934;-43
2022/09/14 14:30:52;;;;;;;25.30;10.30;;;;;;;22.35;54.12;99125.03;108929;1266;21993;-48
2022/09/14 14:33:21;;;;;;;18.50;7.70;;;;;;;22.37;53.42;99120.45;108931;1266;22803;-47
2022/09/14 14:35:55;;;;;;;17.00;8.90;;;;;;;22.39;52.97;99117.97;108879;1265;23036;-50
2022/09/14 14:38:24;;;;;;;15.10;8.60;;;;;;;22.43;52.72;99121.80;108938;1265;23054;-45
2022/09/14 14:40:54;;;;;;;15.50;7.40;;;;;;;22.46;52.50;99122.33;108938;1265;23678;-49
2022/09/14 14:43:25;;;;;;;17.40;6.10;;;;;;;22.48;52.37;99121.90;108864;1266;21987;-50
2022/09/14 14:45:58;;;;;;;13.50;5.50;;;;;;;22.50;52.21;99118.48;108890;1267;23045;-50
2022/09/14 14:48:28;;;;;;;15.80;5.10;;;;;;;22.51;51.96;99115.89;108904;1267;21975;-51
2022/09/14 14:50:57;;;;;;;11.90;4.90;;;;;;;22.54;51.87;99115.05;108815;1269;21982;-50
2022/09/14 14:53:26;;;;;;;11.30;4.90;;;;;;;22.57;51.67;99113.83;109214;1265;23925;-45
2022/09/14 14:55:56;;;;;;;11.30;4.20;;;;;;;22.60;51.55;99115.36;108914;1266;22758;-45
2022/09/14 14:58:24;;;;;;;28.80;7.20;;;;;;;22.62;51.64;99116.17;108951;1266;22022;-50
2022/09/14 15:00:54;;;;;;;26.00;7.90;;;;;;;22.64;51.58;99114.94;108917;1266;22833;-48
2022/09/14 15:03:23;;;;;;;22.10;6.50;;;;;;;22.64;51.52;99115.23;108978;1266;22019;-47
2022/09/14 15:05:52;;;;;;;27.00;6.60;;;;;;;22.65;51.34;99116.23;109060;1266;21969;-49
2022/09/14 15:08:21;;;;;;;18.60;5.60;;;;;;;22.66;51.25;99108.15;109029;1266;23688;-49
2022/09/14 15:10:56;;;;;;;12.20;4.50;;;;;;;22.67;51.16;99103.92;109034;1266;23599;-47
2022/09/14 15:13:25;;;;;;;10.60;4.40;;;;;;;22.68;51.06;99101.20;109072;1265;21975;-47
2022/09/14 15:15:54;;;;;;;14.80;4.60;;;;;;;22.68;51.05;99096.55;109034;1265;24309;-46
2022/09/14 15:18:23;;;;;;;11.00;3.30;;;;;;;22.70;51.13;99096.05;109330;1263;21968;-50
2022/09/14 15:20:52;;;;;;;14.20;4.30;;;;;;;22.72;51.03;99094.77;109070;1263;22196;-51
2022/09/14 15:23:21;;;;;;;14.10;3.80;;;;;;;22.73;50.86;99101.89;109023;1265;23027;-48
2022/09/14 15:25:51;;;;;;;10.10;3.90;;;;;;;22.74;50.90;99105.52;109375;1262;23033;-46
2022/09/14 15:28:20;;;;;;;14.70;4.20;;;;;;;22.74;50.84;99101.20;109211;1263;22022;-50
2022/09/14 15:30:50;;;;;;;8.20;3.40;;;;;;;22.75;50.92;99101.66;109274;1263;21972;-49
2022/09/14 15:33:19;;;;;;;12.50;3.70;;;;;;;22.75;50.73;99100.73;109244;1263;21978;-52
2022/09/14 15:35:55;;;;;;;13.80;3.80;;;;;;;22.75;50.80;99101.67;109441;1262;21976;-50
2022/09/14 15:38:24;;;;;;;8.10;3.20;;;;;;;22.76;50.65;99103.53;109467;1262;24344;-48
2022/09/14 15:40:53;;;;;;;8.10;3.60;;;;;;;22.76;50.92;99103.79;109448;1263;22760;-46
2022/09/14 15:43:22;;;;;;;7.60;3.20;;;;;;;22.78;50.76;99104.98;109209;1263;23758;-46
2022/09/14 15:45:52;;;;;;;5.70;3.40;;;;;;;22.80;50.68;99108.88;109490;1262;23765;-44
2022/09/14 15:48:22;;;;;;;10.10;2.90;;;;;;;22.81;50.76;99110.38;109577;1263;22076;-45
2022/09/14 15:50:51;;;;;;;9.80;3.00;;;;;;;22.82;50.75;99107.45;109195;1262;23647;-51
2022/09/14 15:53:36;;;;;;;12.00;4.40;;;;;;;22.82;50.80;99101.76;109362;1262;22083;-47
2022/09/14 15:56:10;;;;;;;6.40;3.70;;;;;;;22.83;50.82;99098.67;109407;1263;21962;-50
2022/09/14 15:58:40;;;;;;;12.00;3.60;;;;;;;22.83;50.65;99098.60;109456;1262;24290;-44
2022/09/14 16:01:18;;;;;;;6.70;3.90;;;;;;;22.84;50.77;99094.61;109575;1262;21986;-45
2022/09/14 16:03:47;;;;;;;9.70;3.40;;;;;;;22.85;50.62;99090.45;109461;1263;23068;-45
2022/09/14 16:06:16;;;;;;;8.80;4.50;;;;;;;22.85;50.56;99087.62;109522;1261;21965;-49
2022/09/14 16:08:45;;;;;;;14.30;4.60;;;;;;;22.87;50.65;99087.92;109474;1261;23589;-49
2022/09/14 16:11:15;;;;;;;13.20;5.50;;;;;;;22.90;50.76;99090.98;109450;1264;22091;-49
2022/09/14 16:13:44;;;;;;;10.10;4.30;;;;;;;22.92;50.65;99095.37;109596;1262;22008;-52
2022/09/14 16:16:16;;;;;;;8.80;3.60;;;;;;;22.93;50.59;99094.66;109359;1263;26697;-49
2022/09/14 16:18:48;;;;;;;13.10;3.90;;;;;;;22.94;50.63;99090.27;109381;1263;23574;-49
2022/09/14 16:21:24;;;;;;;12.20;4.00;;;;;;;22.95;50.66;99089.48;109452;1262;23060;-51
2022/09/14 16:23:57;;;;;;;9.30;3.50;;;;;;;22.96;50.75;99088.38;109396;1263;21973;-48
2022/09/14 16:26:32;;;;;;;9.10;3.90;;;;;;;22.96;50.72;99086.95;109395;1262;22026;-46
2022/09/14 16:29:02;;;;;;;6.00;3.50;;;;;;;22.96;50.53;99083.02;109409;1262;23707;-47
2022/09/14 16:31:34;;;;;;;7.00;3.60;;;;;;;22.97;50.66;99083.25;109612;1262;22040;-52
2022/09/14 16:34:09;;;;;;;7.00;3.40;;;;;;;22.98;50.68;99079.92;109599;1262;23558;-49
2022/09/14 16:36:40;;;;;;;8.60;3.60;;;;;;;23.00;50.59;99078.86;109470;1263;21972;-44
2022/09/14 16:39:13;;;;;;;8.30;3.30;;;;;;;23.01;50.66;99073.48;109571;1262;23714;-47
2022/09/14 16:41:43;;;;;;;7.80;3.50;;;;;;;23.01;50.65;99072.20;109462;1262;21972;-47
2022/09/14 16:44:19;;;;;;;7.10;3.80;;;;;;;23.01;50.56;99067.55;108991;1263;23591;-48
2022/09/14 16:46:49;;;;;;;9.20;3.20;;;;;;;23.02;50.55;99072.14;109521;1263;21966;-46
2022/09/14 16:49:19;;;;;;;8.40;3.90;;;;;;;23.02;50.69;99075.67;109420;1263;21986;-50
2022/09/14 16:51:59;;;;;;;8.20;3.80;;;;;;;23.02;50.67;99071.42;109665;1261;24027;-46
2022/09/14 16:54:30;;;;;;;15.40;5.20;;;;;;;23.02;50.50;99070.33;109539;1262;23052;-49
2022/09/14 16:57:00;;;;;;;11.60;4.70;;;;;;;23.02;50.49;99068.89;109416;1262;21977;-55
2022/09/14 16:59:29;;;;;;;12.40;5.60;;;;;;;23.01;50.31;99070.13;110015;1256;23047;-48
2022/09/14 17:01:58;;;;;;;12.00;5.10;;;;;;;22.98;50.21;99070.22;109543;1259;23053;-50
2022/09/14 17:04:27;;;;;;;10.00;5.70;;;;;;;22.95;50.10;99073.54;109930;1257;21961;-48
2022/09/14 17:06:56;;;;;;;11.40;6.20;;;;;;;22.93;50.21;99077.38;109938;1258;23170;-48
2022/09/14 17:09:28;;;;;;;10.90;6.20;;;;;;;22.91;50.22;99077.79;109907;1259;22923;-48
2022/09/14 17:11:59;;;;;;;15.70;6.90;;;;;;;22.89;50.37;99081.70;109868;1259;23117;-48
2022/09/14 17:14:31;;;;;;;9.30;6.00;;;;;;;22.87;50.33;99086.89;110059;1257;23693;-51
2022/09/14 17:17:00;;;;;;;8.60;6.50;;;;;;;22.85;50.35;99090.45;110051;1259;21967;-50
2022/09/14 17:19:30;;;;;;;22.00;6.60;;;;;;;22.84;50.46;99090.95;109722;1259;23663;-50
2022/09/14 17:21:59;;;;;;;18.60;7.40;;;;;;;22.83;50.53;99091.75;110030;1258;23020;-51
2022/09/14 17:24:29;;;;;;;17.70;7.10;;;;;;;22.82;50.51;99092.17;109936;1259;22000;-56
2022/09/14 17:26:58;;;;;;;15.00;7.00;;;;;;;22.83;50.80;99093.30;109690;1260;21979;-49
2022/09/14 17:29:27;;;;;;;12.20;6.20;;;;;;;22.80;50.73;99089.73;109886;1256;21957;-54
2022/09/14 17:31:59;;;;;;;9.30;6.20;;;;;;;22.78;50.65;99085.53;109937;1259;23050;-48
2022/09/14 17:34:29;;;;;;;17.00;6.40;;;;;;;22.79;50.75;99082.98;110027;1258;21978;-48
2022/09/14 17:36:58;;;;;;;11.50;6.30;;;;;;;22.76;50.76;99082.09;109852;1259;21971;-47
2022/09/14 17:39:27;;;;;;;19.50;6.90;;;;;;;22.76;50.91;99080.65;109858;1257;23637;-48
2022/09/14 17:41:56;;;;;;;13.90;6.30;;;;;;;22.75;51.01;99076.23;109931;1256;21969;-51
2022/09/14 17:44:26;;;;;;;15.50;6.40;;;;;;;22.75;51.03;99077.34;109792;1259;23645;-51
2022/09/14 17:46:56;;;;;;;16.40;5.70;;;;;;;22.75;51.18;99078.89;110039;1259;22284;-48
2022/09/14 17:49:25;;;;;;;10.60;6.50;;;;;;;22.76;51.17;99075.60;110033;1259;23562;-55
2022/09/14 17:51:54;;;;;;;12.30;6.40;;;;;;;22.77;51.11;99070.70;109840;1259;22107;-45
2022/09/14 17:54:23;;;;;;;11.00;5.40;;;;;;;22.80;51.06;99068.61;109826;1259;21964;-49
2022/09/14 17:56:52;;;;;;;8.10;4.40;;;;;;;22.79;51.10;99072.83;109797;1259;21972;-53
2022/09/14 17:59:23;;;;;;;9.90;5.50;;;;;;;22.80;51.17;99077.88;110021;1259;21965;-50
2022/09/14 18:01:51;;;;;;;9.80;5.60;;;;;;;22.80;51.33;99073.56;109845;1259;23032;-52
2022/09/14 18:04:21;;;;;;;124.30;13.00;;;;;;;22.81;51.32;99066.78;109783;1260;22860;-54
2022/09/14 18:06:50;;;;;;;95.50;10.60;;;;;;;22.81;51.39;99067.65;110008;1259;21984;-49
2022/09/14 18:09:23;;;;;;;43.50;9.10;;;;;;;22.81;51.31;99064.25;109846;1259;23567;-55
2022/09/14 18:11:55;;;;;;;43.00;8.20;;;;;;;22.82;51.39;99068.08;110023;1259;21963;-49
2022/09/14 18:14:25;;;;;;;50.70;9.70;;;;;;;22.84;51.54;99075.66;109975;1259;22950;-48
2022/09/14 18:16:57;;;;;;;64.20;11.40;;;;;;;22.83;51.52;99076.61;109791;1259;22040;-52
2022/09/14 18:19:26;;;;;;;304.60;24.70;;;;;;;22.85;51.65;99074.98;110051;1256;23596;-48
2022/09/14 18:21:55;;;;;;;77.00;12.30;;;;;;;22.88;51.70;99073.33;110011;1256;23663;-50
2022/09/14 18:24:24;;;;;;;77.80;10.90;;;;;;;22.90;51.71;99074.48;110040;1256;23023;-49
2022/09/14 18:26:56;;;;;;;62.40;11.30;;;;;;;22.92;51.65;99064.00;110166;1256;23089;-49
2022/09/14 18:29:26;;;;;;;56.20;11.60;;;;;;;22.93;51.68;99060.34;110091;1256;21975;-50
2022/09/14 18:31:55;;;;;;;64.30;10.80;;;;;;;22.93;51.70;99058.85;109677;1259;22033;-51
2022/09/14 18:34:24;;;;;;;50.10;10.60;;;;;;;22.94;51.77;99056.48;109786;1259;21979;-50
2022/09/14 18:36:54;;;;;;;46.20;9.20;;;;;;;22.94;51.86;99054.46;109852;1257;22771;-47
2022/09/14 18:39:23;;;;;;;41.70;8.60;;;;;;;22.95;51.85;99053.30;109922;1256;23662;-49
2022/09/14 18:41:52;;;;;;;29.30;7.20;;;;;;;22.97;51.83;99052.82;110040;1256;23730;-52
2022/09/14 18:44:22;;;;;;;29.60;8.60;;;;;;;22.97;51.73;99052.21;109592;1256;22217;-50
2022/09/14 18:46:52;;;;;;;36.00;9.30;;;;;;;22.98;51.93;99050.39;110058;1256;22428;-48
2022/09/14 18:49:21;;;;;;;37.70;8.40;;;;;;;22.99;52.05;99048.54;110111;1256;21969;-47
2022/09/14 18:51:50;;;;;;;23.80;7.80;;;;;;;22.99;51.96;99053.77;110038;1256;21953;-48
2022/09/14 18:54:20;;;;;;;37.30;9.00;;;;;;;22.99;51.93;99046.30;110081;1256;22005;-53
2022/09/14 18:56:55;;;;;;;23.70;7.60;;;;;;;22.99;51.99;99038.13;110057;1256;21957;-50
2022/09/14 18:59:24;;;;;;;17.80;6.70;;;;;;;23.01;52.10;99035.86;109878;1256;22191;-48
2022/09/14 19:01:53;;;;;;;24.70;7.30;;;;;;;23.02;52.15;99031.10;110056;1256;24373;-54
2022/09/14 19:04:22;;;;;;;19.80;7.80;;;;;;;23.03;52.24;99023.58;110111;1256;21963;-52
2022/09/14 19:06:51;;;;;;;25.60;6.60;;;;;;;23.03;52.18;99031.00;110030;1256;21973;-51
2022/09/14 19:09:20;;;;;;;15.40;7.10;;;;;;;23.04;52.06;99029.36;110125;1256;23035;-54
2022/09/14 19:11:50;;;;;;;20.50;7.00;;;;;;;23.04;52.15;99024.69;110120;1256;23025;-50
2022/09/14 19:14:19;;;;;;;18.30;6.80;;;;;;;23.04;52.34;99021.30;110017;1257;23012;-50
2022/09/14 19:16:51;;;;;;;15.50;6.80;;;;;;;23.05;52.32;99025.35;110036;1256;23745;-52
2022/09/14 19:19:22;;;;;;;21.50;6.20;;;;;;;23.06;52.34;99034.67;110056;1256;22714;-48
2022/09/14 19:21:52;;;;;;;22.80;7.40;;;;;;;23.06;52.44;99033.72;109762;1259;21968;-52
2022/09/14 19:24:21;;;;;;;17.00;8.70;;;;;;;23.05;52.18;99032.45;110100;1259;22003;-52
2022/09/14 19:26:51;;;;;;;19.70;8.40;;;;;;;23.01;52.25;99030.88;109823;1256;23589;-48
2022/09/14 19:29:23;;;;;;;18.90;9.10;;;;;;;22.99;52.13;99028.91;110039;1256;21964;-51
2022/09/14 19:31:52;;;;;;;13.20;7.40;;;;;;;22.99;52.14;99028.22;110044;1256;23047;-46
2022/09/14 19:34:24;;;;;;;12.90;8.20;;;;;;;23.00;52.27;99027.05;110011;1257;24293;-55
2022/09/14 19:36:54;;;;;;;15.90;7.70;;;;;;;23.01;52.29;99026.61;110018;1259;23574;-53
2022/09/14 19:39:25;;;;;;;12.60;7.50;;;;;;;23.02;52.24;99027.98;110011;1259;23381;-51
2022/09/14 19:41:55;;;;;;;12.80;8.20;;;;;;;23.03;52.41;99025.02;110057;1256;21967;-58
2022/09/14 19:44:24;;;;;;;13.20;7.80;;;;;;;23.03;52.39;99018.93;110001;1257;21967;-53
2022/09/14 19:46:54;;;;;;;13.80;7.30;;;;;;;23.05;52.43;99010.13;109859;1257;24341;-48
2022/09/14 19:49:25;;;;;;;14.50;8.60;;;;;;;23.05;52.35;99001.01;109808;1259;21979;-46
2022/09/14 19:51:55;;;;;;;11.60;7.10;;;;;;;23.06;52.46;99000.25;109850;1257;22427;-47
2022/09/14 19:54:24;;;;;;;10.30;6.50;;;;;;;23.07;52.46;99010.80;110024;1255;22837;-50
2022/09/14 19:56:53;;;;;;;16.40;7.20;;;;;;;23.07;52.44;99009.29;109662;1260;21969;-54
2022/09/14 19:59:22;;;;;;;16.00;6.90;;;;;;;23.07;52.56;99006.99;109975;1257;23042;-49
2022/09/14 20:01:51;;;;;;;9.80;7.00;;;;;;;23.07;52.52;99010.71;110044;1256;22920;-51
2022/09/14 20:04:22;;;;;;;11.30;6.90;;;;;;;23.06;52.61;99016.31;109740;1257;21978;-49
2022/09/14 20:06:51;;;;;;;12.30;7.10;;;;;;;23.06;52.59;99009.83;110005;1256;23664;-55
2022/09/14 20:09:23;;;;;;;11.60;7.20;;;;;;;23.06;52.59;99004.31;110094;1257;21967;-55
2022/09/14 20:11:52;;;;;;;14.00;8.40;;;;;;;23.06;52.56;99007.80;110069;1256;22037;-54
2022/09/14 20:14:24;;;;;;;12.00;6.80;;;;;;;23.07;52.38;99007.36;110093;1257;23130;-46
2022/09/14 20:16:57;;;;;;;10.90;6.90;;;;;;;23.08;52.60;99006.77;110027;1257;21974;-52
2022/09/14 20:19:28;;;;;;;9.80;6.90;;;;;;;23.09;52.56;99007.18;110107;1256;23567;-52
2022/09/14 20:21:57;;;;;;;11.80;6.60;;;;;;;23.09;52.59;99008.68;109979;1259;23619;-51
2022/09/14 20:24:29;;;;;;;7.20;6.30;;;;;;;23.10;52.60;99007.05;110032;1256;21963;-47
2022/09/14 20:27:01;;;;;;;9.80;6.80;;;;;;;23.10;52.67;99006.69;110074;1256;22016;-53
2022/09/14 20:29:34;;;;;;;10.00;6.90;;;;;;;23.10;52.63;99003.62;109916;1257;22085;-53
2022/09/14 20:32:04;;;;;;;12.10;7.60;;;;;;;23.11;52.79;99005.64;110074;1257;21982;-55
2022/09/14 20:34:33;;;;;;;7.80;6.00;;;;;;;23.11;52.61;99007.74;110094;1256;22021;-49
2022/09/14 20:37:02;;;;;;;12.80;6.10;;;;;;;23.12;52.80;99011.02;110120;1259;22123;-51
2022/09/14 20:39:34;;;;;;;8.60;6.00;;;;;;;23.14;52.59;99014.05;110036;1259;23570;-54
2022/09/14 20:42:04;;;;;;;15.20;9.20;;;;;;;23.14;52.71;99015.63;110060;1256;23694;-50
2022/09/14 20:44:34;;;;;;;10.10;7.60;;;;;;;23.13;52.71;99014.45;110073;1256;22042;-49
2022/09/14 20:47:03;;;;;;;13.90;9.20;;;;;;;23.12;52.69;99012.98;110048;1256;23045;-52
2022/09/14 20:49:33;;;;;;;17.50;8.70;;;;;;;23.13;52.63;99010.98;110102;1257;21972;-53
2022/09/14 20:52:02;;;;;;;13.30;8.30;;;;;;;23.13;52.68;99009.46;110038;1257;21979;-52
2022/09/14 20:54:31;;;;;;;13.20;8.60;;;;;;;23.14;52.65;99007.66;110032;1256;22030;-56
2022/09/14 20:57:00;;;;;;;13.40;8.40;;;;;;;23.14;52.71;99006.37;110043;1256;21954;-53
2022/09/14 20:59:32;;;;;;;10.80;8.50;;;;;;;23.14;52.73;99001.37;110052;1256;23121;-50
2022/09/14 21:02:01;;;;;;;8.90;6.80;;;;;;;23.15;52.68;99001.67;110156;1256;23638;-56
2022/09/14 21:04:34;;;;;;;9.40;7.20;;;;;;;23.16;52.66;98999.28;109978;1259;22282;-51
2022/09/14 21:07:04;;;;;;;10.30;8.00;;;;;;;23.16;52.74;98993.88;110075;1256;23020;-58
2022/09/14 21:09:34;;;;;;;8.80;7.10;;;;;;;23.17;52.67;98991.36;110015;1256;21976;-54
2022/09/14 21:12:03;;;;;;;10.10;7.50;;;;;;;23.18;52.64;98987.56;110011;1259;22749;-57
2022/09/14 21:14:32;;;;;;;13.70;7.60;;;;;;;23.17;52.78;98986.48;110049;1256;22114;-54
2022/09/14 21:17:02;;;;;;;8.80;6.60;;;;;;;23.17;52.76;98987.19;110019;1256;23080;-47
2022/09/14 21:19:31;;;;;;;9.90;7.30;;;;;;;23.18;52.81;98981.88;110075;1257;21966;-53
2022/09/14 21:22:00;;;;;;;8.40;7.00;;;;;;;23.18;52.85;98985.53;110039;1257;21969;-50
2022/09/14 21:24:29;;;;;;;10.80;7.20;;;;;;;23.18;52.88;98981.30;109831;1259;23681;-51
2022/09/14 21:26:58;;;;;;;9.60;7.60;;;;;;;23.18;52.89;98983.04;109921;1257;23044;-57
2022/09/14 21:29:28;;;;;;;8.70;6.80;;;;;;;23.19;52.98;98981.40;109809;1256;23834;-51
2022/09/14 21:31:57;;;;;;;8.90;7.70;;;;;;;23.19;52.79;98979.77;110081;1257;23027;-47
2022/09/14 21:34:26;;;;;;;9.80;7.30;;;;;;;23.19;52.75;98980.14;109847;1259;21979;-48
2022/09/14 21:36:55;;;;;;;8.30;7.50;;;;;;;23.19;52.83;98976.58;109875;1259;23046;-48
2022/09/14 21:39:25;;;;;;;9.90;7.90;;;;;;;23.19;53.01;98980.14;110069;1257;24581;-46
2022/09/14 21:41:56;;;;;;;48.40;43.50;;;;;;;23.18;53.01;98981.48;110079;1257;23760;-55
2022/09/14 21:44:30;;;;;;;73.50;66.20;;;;;;;23.16;53.01;98981.34;109984;1258;23109;-51
2022/09/14 21:47:01;;;;;;;91.90;83.10;;;;;;;23.15;53.05;98980.95;109664;1257;22983;-55
2022/09/14 21:49:31;;;;;;;110.40;99.80;;;;;;;23.15;53.09;98986.74;109895;1259;21966;-49
2022/09/14 21:52:00;;;;;;;107.10;96.90;;;;;;;23.16;53.15;98988.80;109835;1256;24293;-48
2022/09/14 21:54:29;;;;;;;98.90;89.60;;;;;;;23.17;53.17;98990.33;110064;1256;21971;-47
2022/09/14 21:56:58;;;;;;;92.40;83.30;;;;;;;23.18;53.16;98987.36;110100;1256;22005;-55
2022/09/14 21:59:27;;;;;;;86.10;77.60;;;;;;;23.18;53.09;98986.40;110092;1256;23045;-52
2022/09/14 22:01:56;;;;;;;87.50;79.30;;;;;;;23.18;53.16;98982.30;109992;1259;21962;-54
2022/09/14 22:04:25;;;;;;;84.70;76.60;;;;;;;23.19;53.15;98982.77;110219;1257;21967;-56
2022/09/14 22:06:56;;;;;;;83.00;74.90;;;;;;;23.20;52.99;98985.35;109978;1257;23244;-55
2022/09/14 22:09:28;;;;;;;78.60;71.20;;;;;;;23.20;53.17;98982.00;110237;1256;21969;-48
2022/09/14 22:11:57;;;;;;;74.40;67.40;;;;;;;23.20;53.30;98981.92;110226;1256;22281;-52
2022/09/14 22:14:28;;;;;;;72.70;65.80;;;;;;;23.21;53.31;98977.02;110211;1257;21992;-46
2022/09/14 22:16:57;;;;;;;74.00;67.10;;;;;;;23.21;53.14;98976.09;110126;1256;21978;-49
2022/09/14 22:19:30;;;;;;;87.60;79.20;;;;;;;23.21;53.12;98974.41;109816;1257;22039;-52
2022/09/14 22:21:59;;;;;;;88.30;80.00;;;;;;;23.20;53.04;98973.45;110090;1256;21963;-50
2022/09/14 22:24:33;;;;;;;91.00;82.50;;;;;;;23.18;53.08;98970.86;110115;1256;21963;-55
2022/09/14 22:27:09;;;;;;;86.90;78.80;;;;;;;23.17;53.22;98967.36;109871;1259;23587;-52
2022/09/14 22:29:39;;;;;;;90.00;81.50;;;;;;;23.18;53.34;98967.10;110016;1259;21961;-54
2022/09/14 22:32:10;;;;;;;85.40;77.60;;;;;;;23.18;53.32;98967.40;110023;1257;23502;-54
2022/09/14 22:34:40;;;;;;;81.90;74.20;;;;;;;23.18;53.27;98964.77;110058;1256;22633;-54
2022/09/14 22:37:12;;;;;;;79.10;71.90;;;;;;;23.18;53.28;98963.66;110035;1257;23698;-51
2022/09/14 22:39:41;;;;;;;77.30;70.10;;;;;;;23.19;53.25;98959.86;109854;1259;21966;-50
2022/09/14 22:42:11;;;;;;;77.40;70.30;;;;;;;23.19;53.30;98965.52;109891;1257;21966;-52
2022/09/14 22:44:40;;;;;;;74.00;67.00;;;;;;;23.20;53.47;98966.16;110061;1256;22748;-54